sensor_id;sensor_type;location;lat;lon;timestamp;P1;durP1;ratioP1;P2;durP2;ratioP2
179;SDS011;78;48.788;9.010;2022-07-17T00:00:40;20.70;;;6.80;;
179;SDS011;78;48.788;9.010;2022-07-17T00:03:10;22.13;;;6.83;;
179;SDS011;78;48.788;9.010;2022-07-17T00:05:37;21.97;;;7.13;;
179;SDS011;78;48.788;9.010;2022-07-17T00:08:06;21.63;;;6.90;;
179;SDS011;78;48.788;9.010;2022-07-17T00:10:33;22.40;;;6.90;;
179;SDS011;78;48.788;9.010;2022-07-17T00:13:00;22.30;;;6.90;;
179;SDS011;78;48.788;9.010;2022-07-17T00:15:27;19.93;;;6.50;;
179;SDS011;78;48.788;9.010;2022-07-17T00:17:53;22.30;;;6.30;;
179;SDS011;78;48.788;9.010;2022-07-17T00:20:20;20.83;;;7.03;;
179;SDS011;78;48.788;9.010;2022-07-17T00:22:46;19.90;;;6.63;;
179;SDS011;78;48.788;9.010;2022-07-17T00:25:13;22.77;;;7.67;;
179;SDS011;78;48.788;9.010;2022-07-17T00:27:39;22.43;;;7.10;;
179;SDS011;78;48.788;9.010;2022-07-17T00:30:06;21.97;;;6.50;;
179;SDS011;78;48.788;9.010;2022-07-17T00:32:33;20.80;;;7.10;;
179;SDS011;78;48.788;9.010;2022-07-17T00:34:59;21.73;;;7.10;;
179;SDS011;78;48.788;9.010;2022-07-17T00:37:25;21.60;;;7.00;;
179;SDS011;78;48.788;9.010;2022-07-17T00:39:51;20.90;;;7.00;;
179;SDS011;78;48.788;9.010;2022-07-17T00:42:18;20.87;;;7.20;;
179;SDS011;78;48.788;9.010;2022-07-17T00:44:44;22.10;;;6.77;;
179;SDS011;78;48.788;9.010;2022-07-17T00:49:40;20.43;;;6.53;;
179;SDS011;78;48.788;9.010;2022-07-17T00:52:07;19.70;;;6.53;;
179;SDS011;78;48.788;9.010;2022-07-17T00:54:35;22.57;;;7.43;;
179;SDS011;78;48.788;9.010;2022-07-17T00:57:03;25.03;;;7.53;;
179;SDS011;78;48.788;9.010;2022-07-17T00:59:30;22.63;;;7.27;;
179;SDS011;78;48.788;9.010;2022-07-17T01:01:57;22.50;;;7.23;;
179;SDS011;78;48.788;9.010;2022-07-17T01:04:23;23.10;;;7.40;;
179;SDS011;78;48.788;9.010;2022-07-17T01:06:50;22.70;;;7.43;;
179;SDS011;78;48.788;9.010;2022-07-17T01:09:16;23.87;;;7.53;;
179;SDS011;78;48.788;9.010;2022-07-17T01:11:42;23.17;;;7.33;;
179;SDS011;78;48.788;9.010;2022-07-17T01:14:09;21.50;;;6.87;;
179;SDS011;78;48.788;9.010;2022-07-17T01:16:36;21.90;;;7.00;;
179;SDS011;78;48.788;9.010;2022-07-17T01:19:02;21.90;;;7.33;;
179;SDS011;78;48.788;9.010;2022-07-17T01:21:38;23.70;;;7.73;;
179;SDS011;78;48.788;9.010;2022-07-17T01:24:05;21.27;;;7.37;;
179;SDS011;78;48.788;9.010;2022-07-17T01:26:31;21.03;;;7.20;;
179;SDS011;78;48.788;9.010;2022-07-17T01:28:58;22.40;;;7.90;;
179;SDS011;78;48.788;9.010;2022-07-17T01:31:24;22.87;;;8.00;;
179;SDS011;78;48.788;9.010;2022-07-17T01:33:50;22.67;;;7.30;;
179;SDS011;78;48.788;9.010;2022-07-17T01:36:21;20.07;;;7.00;;
179;SDS011;78;48.788;9.010;2022-07-17T01:38:48;23.63;;;7.90;;
179;SDS011;78;48.788;9.010;2022-07-17T01:41:14;29.10;;;7.63;;
179;SDS011;78;48.788;9.010;2022-07-17T01:43:40;21.80;;;7.70;;
179;SDS011;78;48.788;9.010;2022-07-17T01:46:07;25.17;;;8.47;;
179;SDS011;78;48.788;9.010;2022-07-17T01:48:33;22.37;;;7.80;;
179;SDS011;78;48.788;9.010;2022-07-17T01:51:00;24.23;;;8.07;;
179;SDS011;78;48.788;9.010;2022-07-17T01:53:26;21.50;;;7.33;;
179;SDS011;78;48.788;9.010;2022-07-17T01:55:53;23.50;;;8.37;;
179;SDS011;78;48.788;9.010;2022-07-17T01:58:19;26.20;;;7.90;;
179;SDS011;78;48.788;9.010;2022-07-17T02:00:45;20.90;;;7.70;;
179;SDS011;78;48.788;9.010;2022-07-17T02:03:11;23.00;;;7.70;;
179;SDS011;78;48.788;9.010;2022-07-17T02:05:37;23.43;;;8.23;;
179;SDS011;78;48.788;9.010;2022-07-17T02:08:04;22.83;;;8.20;;
179;SDS011;78;48.788;9.010;2022-07-17T02:10:30;22.60;;;8.43;;
179;SDS011;78;48.788;9.010;2022-07-17T02:12:57;22.27;;;8.03;;
179;SDS011;78;48.788;9.010;2022-07-17T02:15:23;22.37;;;7.77;;
179;SDS011;78;48.788;9.010;2022-07-17T02:17:50;25.27;;;8.87;;
179;SDS011;78;48.788;9.010;2022-07-17T02:20:17;23.43;;;8.60;;
179;SDS011;78;48.788;9.010;2022-07-17T02:22:43;24.37;;;8.40;;
179;SDS011;78;48.788;9.010;2022-07-17T02:25:10;22.00;;;8.57;;
179;SDS011;78;48.788;9.010;2022-07-17T02:27:36;23.30;;;9.03;;
179;SDS011;78;48.788;9.010;2022-07-17T02:30:03;24.50;;;8.67;;
179;SDS011;78;48.788;9.010;2022-07-17T02:32:30;23.87;;;9.13;;
179;SDS011;78;48.788;9.010;2022-07-17T02:34:56;24.90;;;9.30;;
179;SDS011;78;48.788;9.010;2022-07-17T02:37:23;25.20;;;9.70;;
179;SDS011;78;48.788;9.010;2022-07-17T02:39:49;23.33;;;9.13;;
179;SDS011;78;48.788;9.010;2022-07-17T02:42:22;22.63;;;8.73;;
179;SDS011;78;48.788;9.010;2022-07-17T02:44:48;22.30;;;8.53;;
179;SDS011;78;48.788;9.010;2022-07-17T02:47:21;23.40;;;8.83;;
179;SDS011;78;48.788;9.010;2022-07-17T02:49:48;25.67;;;8.80;;
179;SDS011;78;48.788;9.010;2022-07-17T02:52:14;23.73;;;8.87;;
179;SDS011;78;48.788;9.010;2022-07-17T02:54:40;24.13;;;8.97;;
179;SDS011;78;48.788;9.010;2022-07-17T02:57:07;25.00;;;9.00;;
179;SDS011;78;48.788;9.010;2022-07-17T02:59:33;23.50;;;8.80;;
179;SDS011;78;48.788;9.010;2022-07-17T03:02:00;25.13;;;8.90;;
179;SDS011;78;48.788;9.010;2022-07-17T03:04:26;23.23;;;8.67;;
179;SDS011;78;48.788;9.010;2022-07-17T03:06:53;25.33;;;9.27;;
179;SDS011;78;48.788;9.010;2022-07-17T03:09:19;23.73;;;8.63;;
179;SDS011;78;48.788;9.010;2022-07-17T03:11:45;23.30;;;9.43;;
179;SDS011;78;48.788;9.010;2022-07-17T03:14:12;23.00;;;8.40;;
179;SDS011;78;48.788;9.010;2022-07-17T03:16:38;25.90;;;8.70;;
179;SDS011;78;48.788;9.010;2022-07-17T03:19:04;23.97;;;9.60;;
179;SDS011;78;48.788;9.010;2022-07-17T03:21:31;24.93;;;9.63;;
179;SDS011;78;48.788;9.010;2022-07-17T03:23:57;26.17;;;8.73;;
179;SDS011;78;48.788;9.010;2022-07-17T03:26:23;24.43;;;10.17;;
179;SDS011;78;48.788;9.010;2022-07-17T03:28:49;22.90;;;9.33;;
179;SDS011;78;48.788;9.010;2022-07-17T03:31:16;24.23;;;9.77;;
179;SDS011;78;48.788;9.010;2022-07-17T03:33:42;24.23;;;9.47;;
179;SDS011;78;48.788;9.010;2022-07-17T03:36:09;24.37;;;9.93;;
179;SDS011;78;48.788;9.010;2022-07-17T03:38:35;26.10;;;10.53;;
179;SDS011;78;48.788;9.010;2022-07-17T03:41:01;23.80;;;9.73;;
179;SDS011;78;48.788;9.010;2022-07-17T03:43:27;26.43;;;10.43;;
179;SDS011;78;48.788;9.010;2022-07-17T03:45:54;23.53;;;9.20;;
179;SDS011;78;48.788;9.010;2022-07-17T03:48:20;23.30;;;9.07;;
179;SDS011;78;48.788;9.010;2022-07-17T03:50:46;24.40;;;9.60;;
179;SDS011;78;48.788;9.010;2022-07-17T03:53:13;23.57;;;9.70;;
179;SDS011;78;48.788;9.010;2022-07-17T03:55:39;25.77;;;9.70;;
179;SDS011;78;48.788;9.010;2022-07-17T03:58:06;24.80;;;9.20;;
179;SDS011;78;48.788;9.010;2022-07-17T04:00:32;24.13;;;9.60;;
179;SDS011;78;48.788;9.010;2022-07-17T04:02:58;27.17;;;9.50;;
179;SDS011;78;48.788;9.010;2022-07-17T04:05:25;29.70;;;9.90;;
179;SDS011;78;48.788;9.010;2022-07-17T04:07:51;23.60;;;9.57;;
179;SDS011;78;48.788;9.010;2022-07-17T04:10:17;24.90;;;9.80;;
179;SDS011;78;48.788;9.010;2022-07-17T04:12:44;23.77;;;10.00;;
179;SDS011;78;48.788;9.010;2022-07-17T04:15:10;26.50;;;10.30;;
179;SDS011;78;48.788;9.010;2022-07-17T04:17:37;27.10;;;9.93;;
179;SDS011;78;48.788;9.010;2022-07-17T04:20:03;26.50;;;10.30;;
179;SDS011;78;48.788;9.010;2022-07-17T04:22:29;24.50;;;9.90;;
179;SDS011;78;48.788;9.010;2022-07-17T04:24:56;24.47;;;9.60;;
179;SDS011;78;48.788;9.010;2022-07-17T04:27:22;25.63;;;10.50;;
179;SDS011;78;48.788;9.010;2022-07-17T04:29:50;23.80;;;10.43;;
179;SDS011;78;48.788;9.010;2022-07-17T04:32:16;29.63;;;10.90;;
179;SDS011;78;48.788;9.010;2022-07-17T04:34:42;26.87;;;10.97;;
179;SDS011;78;48.788;9.010;2022-07-17T04:37:08;29.77;;;10.70;;
179;SDS011;78;48.788;9.010;2022-07-17T04:39:35;26.07;;;11.13;;
179;SDS011;78;48.788;9.010;2022-07-17T04:42:01;25.17;;;10.60;;
179;SDS011;78;48.788;9.010;2022-07-17T04:44:28;27.17;;;10.77;;
179;SDS011;78;48.788;9.010;2022-07-17T04:46:54;24.47;;;10.30;;
179;SDS011;78;48.788;9.010;2022-07-17T04:49:21;27.13;;;11.10;;
179;SDS011;78;48.788;9.010;2022-07-17T04:51:48;31.53;;;10.67;;
179;SDS011;78;48.788;9.010;2022-07-17T04:54:14;25.33;;;10.70;;
179;SDS011;78;48.788;9.010;2022-07-17T04:56:40;26.97;;;10.77;;
179;SDS011;78;48.788;9.010;2022-07-17T04:59:06;27.20;;;11.00;;
179;SDS011;78;48.788;9.010;2022-07-17T05:01:33;26.30;;;10.97;;
179;SDS011;78;48.788;9.010;2022-07-17T05:03:59;26.23;;;11.10;;
179;SDS011;78;48.788;9.010;2022-07-17T05:06:27;27.43;;;10.73;;
179;SDS011;78;48.788;9.010;2022-07-17T05:08:53;31.00;;;11.93;;
179;SDS011;78;48.788;9.010;2022-07-17T05:11:19;25.77;;;11.27;;
179;SDS011;78;48.788;9.010;2022-07-17T05:13:45;27.00;;;11.50;;
179;SDS011;78;48.788;9.010;2022-07-17T05:16:11;26.97;;;11.37;;
179;SDS011;78;48.788;9.010;2022-07-17T05:18:37;28.20;;;11.30;;
179;SDS011;78;48.788;9.010;2022-07-17T05:21:03;27.17;;;11.93;;
179;SDS011;78;48.788;9.010;2022-07-17T05:23:30;27.13;;;10.80;;
179;SDS011;78;48.788;9.010;2022-07-17T05:25:56;27.40;;;11.60;;
179;SDS011;78;48.788;9.010;2022-07-17T05:28:23;26.70;;;11.23;;
179;SDS011;78;48.788;9.010;2022-07-17T05:30:50;31.47;;;11.10;;
179;SDS011;78;48.788;9.010;2022-07-17T05:33:16;26.00;;;10.60;;
179;SDS011;78;48.788;9.010;2022-07-17T05:35:42;26.20;;;10.10;;
179;SDS011;78;48.788;9.010;2022-07-17T05:38:09;25.30;;;10.10;;
179;SDS011;78;48.788;9.010;2022-07-17T05:40:35;27.70;;;10.63;;
179;SDS011;78;48.788;9.010;2022-07-17T05:43:01;24.67;;;10.23;;
179;SDS011;78;48.788;9.010;2022-07-17T05:45:28;26.00;;;10.63;;
179;SDS011;78;48.788;9.010;2022-07-17T05:47:54;22.93;;;9.67;;
179;SDS011;78;48.788;9.010;2022-07-17T05:50:20;24.10;;;10.13;;
179;SDS011;78;48.788;9.010;2022-07-17T05:52:47;23.97;;;9.63;;
179;SDS011;78;48.788;9.010;2022-07-17T05:55:13;25.30;;;10.30;;
179;SDS011;78;48.788;9.010;2022-07-17T05:57:40;24.47;;;10.13;;
179;SDS011;78;48.788;9.010;2022-07-17T06:00:06;24.67;;;10.17;;
179;SDS011;78;48.788;9.010;2022-07-17T06:02:34;25.40;;;9.93;;
179;SDS011;78;48.788;9.010;2022-07-17T06:05:00;25.03;;;10.50;;
179;SDS011;78;48.788;9.010;2022-07-17T06:07:27;31.27;;;10.50;;
179;SDS011;78;48.788;9.010;2022-07-17T06:09:53;25.23;;;9.93;;
179;SDS011;78;48.788;9.010;2022-07-17T06:12:19;26.90;;;10.80;;
179;SDS011;78;48.788;9.010;2022-07-17T06:14:46;26.60;;;10.27;;
179;SDS011;78;48.788;9.010;2022-07-17T06:17:12;24.80;;;10.30;;
179;SDS011;78;48.788;9.010;2022-07-17T06:19:39;23.60;;;9.50;;
179;SDS011;78;48.788;9.010;2022-07-17T06:22:05;26.57;;;10.10;;
179;SDS011;78;48.788;9.010;2022-07-17T06:24:32;24.67;;;9.47;;
179;SDS011;78;48.788;9.010;2022-07-17T06:26:58;26.00;;;9.30;;
179;SDS011;78;48.788;9.010;2022-07-17T06:29:24;22.60;;;9.07;;
179;SDS011;78;48.788;9.010;2022-07-17T06:31:50;26.10;;;9.50;;
179;SDS011;78;48.788;9.010;2022-07-17T06:34:17;21.43;;;7.90;;
179;SDS011;78;48.788;9.010;2022-07-17T06:36:43;28.23;;;8.50;;
179;SDS011;78;48.788;9.010;2022-07-17T06:39:09;24.30;;;8.50;;
179;SDS011;78;48.788;9.010;2022-07-17T06:41:36;22.20;;;8.50;;
179;SDS011;78;48.788;9.010;2022-07-17T06:44:02;23.20;;;9.47;;
179;SDS011;78;48.788;9.010;2022-07-17T06:46:28;23.17;;;8.73;;
179;SDS011;78;48.788;9.010;2022-07-17T06:48:54;28.20;;;9.20;;
179;SDS011;78;48.788;9.010;2022-07-17T06:51:20;25.70;;;8.17;;
179;SDS011;78;48.788;9.010;2022-07-17T06:53:46;22.10;;;8.60;;
179;SDS011;78;48.788;9.010;2022-07-17T06:56:13;23.33;;;8.60;;
179;SDS011;78;48.788;9.010;2022-07-17T06:58:39;21.63;;;8.00;;
179;SDS011;78;48.788;9.010;2022-07-17T07:01:06;23.67;;;7.93;;
179;SDS011;78;48.788;9.010;2022-07-17T07:03:32;22.57;;;8.43;;
179;SDS011;78;48.788;9.010;2022-07-17T07:05:59;21.07;;;8.10;;
179;SDS011;78;48.788;9.010;2022-07-17T07:08:25;23.00;;;7.57;;
179;SDS011;78;48.788;9.010;2022-07-17T07:10:52;27.93;;;8.37;;
179;SDS011;78;48.788;9.010;2022-07-17T07:13:18;23.43;;;7.70;;
179;SDS011;78;48.788;9.010;2022-07-17T07:15:45;23.07;;;7.50;;
179;SDS011;78;48.788;9.010;2022-07-17T07:18:11;20.17;;;6.83;;
179;SDS011;78;48.788;9.010;2022-07-17T07:20:37;25.03;;;7.30;;
179;SDS011;78;48.788;9.010;2022-07-17T07:23:03;25.73;;;7.50;;
179;SDS011;78;48.788;9.010;2022-07-17T07:25:30;19.70;;;7.10;;
179;SDS011;78;48.788;9.010;2022-07-17T07:27:56;24.03;;;7.60;;
179;SDS011;78;48.788;9.010;2022-07-17T07:30:23;20.97;;;7.10;;
179;SDS011;78;48.788;9.010;2022-07-17T07:32:49;24.80;;;7.37;;
179;SDS011;78;48.788;9.010;2022-07-17T07:35:16;22.10;;;6.73;;
179;SDS011;78;48.788;9.010;2022-07-17T07:37:42;22.83;;;7.40;;
179;SDS011;78;48.788;9.010;2022-07-17T07:40:08;22.53;;;6.83;;
179;SDS011;78;48.788;9.010;2022-07-17T07:42:35;22.47;;;7.33;;
179;SDS011;78;48.788;9.010;2022-07-17T07:52:48;18.43;;;6.00;;
179;SDS011;78;48.788;9.010;2022-07-17T07:55:14;19.40;;;6.03;;
179;SDS011;78;48.788;9.010;2022-07-17T07:57:40;24.10;;;6.93;;
179;SDS011;78;48.788;9.010;2022-07-17T08:00:07;18.33;;;5.80;;
179;SDS011;78;48.788;9.010;2022-07-17T08:02:33;21.60;;;6.23;;
179;SDS011;78;48.788;9.010;2022-07-17T08:05:00;18.93;;;6.23;;
179;SDS011;78;48.788;9.010;2022-07-17T08:07:26;19.50;;;6.10;;
179;SDS011;78;48.788;9.010;2022-07-17T08:09:52;22.60;;;6.43;;
179;SDS011;78;48.788;9.010;2022-07-17T08:12:18;22.50;;;6.00;;
179;SDS011;78;48.788;9.010;2022-07-17T08:14:45;18.20;;;5.97;;
179;SDS011;78;48.788;9.010;2022-07-17T08:17:11;20.80;;;6.03;;
179;SDS011;78;48.788;9.010;2022-07-17T08:19:37;18.17;;;5.50;;
179;SDS011;78;48.788;9.010;2022-07-17T08:22:03;19.60;;;5.67;;
179;SDS011;78;48.788;9.010;2022-07-17T08:24:30;21.23;;;5.97;;
179;SDS011;78;48.788;9.010;2022-07-17T08:26:56;20.83;;;6.20;;
179;SDS011;78;48.788;9.010;2022-07-17T08:29:22;21.20;;;5.70;;
179;SDS011;78;48.788;9.010;2022-07-17T08:31:48;21.57;;;6.20;;
179;SDS011;78;48.788;9.010;2022-07-17T08:34:15;25.60;;;6.43;;
179;SDS011;78;48.788;9.010;2022-07-17T08:36:41;18.50;;;5.77;;
179;SDS011;78;48.788;9.010;2022-07-17T08:39:07;19.60;;;5.40;;
179;SDS011;78;48.788;9.010;2022-07-17T08:41:37;21.63;;;5.20;;
179;SDS011;78;48.788;9.010;2022-07-17T08:44:07;19.10;;;5.27;;
179;SDS011;78;48.788;9.010;2022-07-17T08:46:37;18.27;;;5.30;;
179;SDS011;78;48.788;9.010;2022-07-17T08:49:03;18.10;;;5.30;;
179;SDS011;78;48.788;9.010;2022-07-17T08:51:30;18.90;;;5.20;;
179;SDS011;78;48.788;9.010;2022-07-17T08:53:56;19.67;;;5.10;;
179;SDS011;78;48.788;9.010;2022-07-17T08:56:22;20.90;;;5.90;;
179;SDS011;78;48.788;9.010;2022-07-17T08:58:49;20.90;;;5.13;;
179;SDS011;78;48.788;9.010;2022-07-17T09:01:15;19.03;;;5.33;;
179;SDS011;78;48.788;9.010;2022-07-17T09:03:52;19.87;;;5.60;;
179;SDS011;78;48.788;9.010;2022-07-17T09:06:19;24.83;;;5.50;;
179;SDS011;78;48.788;9.010;2022-07-17T09:08:45;17.40;;;4.70;;
179;SDS011;78;48.788;9.010;2022-07-17T09:11:11;18.13;;;5.10;;
179;SDS011;78;48.788;9.010;2022-07-17T09:13:37;19.50;;;5.77;;
179;SDS011;78;48.788;9.010;2022-07-17T09:16:09;21.00;;;6.10;;
179;SDS011;78;48.788;9.010;2022-07-17T09:18:42;20.00;;;5.53;;
179;SDS011;78;48.788;9.010;2022-07-17T09:21:15;20.20;;;6.60;;
179;SDS011;78;48.788;9.010;2022-07-17T09:23:42;20.20;;;5.30;;
179;SDS011;78;48.788;9.010;2022-07-17T09:26:08;16.97;;;4.90;;
179;SDS011;78;48.788;9.010;2022-07-17T09:28:43;20.10;;;4.97;;
179;SDS011;78;48.788;9.010;2022-07-17T09:31:10;20.47;;;4.80;;
179;SDS011;78;48.788;9.010;2022-07-17T09:33:37;19.10;;;5.13;;
179;SDS011;78;48.788;9.010;2022-07-17T09:36:08;17.13;;;4.87;;
179;SDS011;78;48.788;9.010;2022-07-17T09:38:36;19.53;;;4.77;;
179;SDS011;78;48.788;9.010;2022-07-17T09:41:10;16.20;;;4.30;;
179;SDS011;78;48.788;9.010;2022-07-17T09:43:37;18.17;;;4.60;;
179;SDS011;78;48.788;9.010;2022-07-17T09:46:03;18.80;;;4.60;;
179;SDS011;78;48.788;9.010;2022-07-17T09:48:29;22.00;;;4.40;;
179;SDS011;78;48.788;9.010;2022-07-17T09:50:55;19.30;;;4.47;;
179;SDS011;78;48.788;9.010;2022-07-17T09:53:22;19.67;;;4.60;;
179;SDS011;78;48.788;9.010;2022-07-17T09:55:48;18.90;;;4.13;;
179;SDS011;78;48.788;9.010;2022-07-17T09:58:19;17.20;;;4.10;;
179;SDS011;78;48.788;9.010;2022-07-17T10:00:46;17.53;;;4.10;;
179;SDS011;78;48.788;9.010;2022-07-17T10:03:16;16.77;;;4.27;;
179;SDS011;78;48.788;9.010;2022-07-17T10:05:42;15.77;;;4.13;;
179;SDS011;78;48.788;9.010;2022-07-17T10:08:08;17.60;;;4.33;;
179;SDS011;78;48.788;9.010;2022-07-17T10:10:34;16.33;;;3.90;;
179;SDS011;78;48.788;9.010;2022-07-17T10:13:00;16.83;;;3.70;;
179;SDS011;78;48.788;9.010;2022-07-17T10:15:26;17.60;;;4.43;;
179;SDS011;78;48.788;9.010;2022-07-17T10:18:05;18.23;;;4.20;;
179;SDS011;78;48.788;9.010;2022-07-17T10:20:31;16.97;;;4.00;;
179;SDS011;78;48.788;9.010;2022-07-17T10:22:57;16.50;;;4.03;;
179;SDS011;78;48.788;9.010;2022-07-17T10:25:23;15.20;;;3.77;;
179;SDS011;78;48.788;9.010;2022-07-17T10:27:53;16.97;;;3.40;;
179;SDS011;78;48.788;9.010;2022-07-17T10:30:22;17.93;;;3.70;;
179;SDS011;78;48.788;9.010;2022-07-17T10:32:53;15.47;;;3.83;;
179;SDS011;78;48.788;9.010;2022-07-17T10:35:19;16.17;;;4.10;;
179;SDS011;78;48.788;9.010;2022-07-17T10:37:45;15.90;;;3.47;;
179;SDS011;78;48.788;9.010;2022-07-17T10:45:07;21.40;;;3.87;;
179;SDS011;78;48.788;9.010;2022-07-17T10:48:33;15.47;;;3.67;;
179;SDS011;78;48.788;9.010;2022-07-17T10:52:58;15.50;;;3.30;;
179;SDS011;78;48.788;9.010;2022-07-17T10:55:24;24.37;;;3.70;;
179;SDS011;78;48.788;9.010;2022-07-17T10:57:50;16.50;;;3.80;;
179;SDS011;78;48.788;9.010;2022-07-17T11:00:16;17.00;;;3.67;;
179;SDS011;78;48.788;9.010;2022-07-17T11:02:43;15.97;;;3.23;;
179;SDS011;78;48.788;9.010;2022-07-17T11:05:09;15.57;;;3.30;;
179;SDS011;78;48.788;9.010;2022-07-17T11:07:36;15.60;;;3.70;;
179;SDS011;78;48.788;9.010;2022-07-17T11:10:13;15.30;;;3.13;;
179;SDS011;78;48.788;9.010;2022-07-17T11:12:39;16.13;;;3.47;;
179;SDS011;78;48.788;9.010;2022-07-17T11:15:05;16.17;;;3.20;;
179;SDS011;78;48.788;9.010;2022-07-17T11:17:31;15.67;;;3.47;;
179;SDS011;78;48.788;9.010;2022-07-17T11:19:58;14.70;;;3.00;;
179;SDS011;78;48.788;9.010;2022-07-17T11:22:24;14.73;;;3.23;;
179;SDS011;78;48.788;9.010;2022-07-17T11:24:50;15.60;;;3.30;;
179;SDS011;78;48.788;9.010;2022-07-17T11:27:23;15.00;;;3.23;;
179;SDS011;78;48.788;9.010;2022-07-17T11:29:51;14.87;;;3.10;;
179;SDS011;78;48.788;9.010;2022-07-17T11:32:17;15.40;;;2.83;;
179;SDS011;78;48.788;9.010;2022-07-17T11:34:43;15.20;;;2.90;;
179;SDS011;78;48.788;9.010;2022-07-17T11:37:09;16.97;;;3.30;;
179;SDS011;78;48.788;9.010;2022-07-17T11:39:39;16.50;;;2.90;;
179;SDS011;78;48.788;9.010;2022-07-17T11:42:11;15.63;;;2.67;;
179;SDS011;78;48.788;9.010;2022-07-17T11:44:38;15.93;;;4.03;;
179;SDS011;78;48.788;9.010;2022-07-17T11:47:04;17.13;;;3.10;;
179;SDS011;78;48.788;9.010;2022-07-17T11:49:31;14.50;;;2.70;;
179;SDS011;78;48.788;9.010;2022-07-17T11:52:05;18.70;;;3.07;;
179;SDS011;78;48.788;9.010;2022-07-17T11:54:32;16.00;;;2.70;;
179;SDS011;78;48.788;9.010;2022-07-17T11:56:58;15.27;;;2.80;;
179;SDS011;78;48.788;9.010;2022-07-17T11:59:28;13.83;;;2.50;;
179;SDS011;78;48.788;9.010;2022-07-17T12:01:54;13.90;;;2.50;;
179;SDS011;78;48.788;9.010;2022-07-17T12:04:20;14.07;;;2.37;;
179;SDS011;78;48.788;9.010;2022-07-17T12:06:57;16.17;;;2.87;;
179;SDS011;78;48.788;9.010;2022-07-17T12:09:25;13.77;;;2.70;;
179;SDS011;78;48.788;9.010;2022-07-17T12:11:52;15.50;;;2.43;;
179;SDS011;78;48.788;9.010;2022-07-17T12:14:18;13.37;;;2.20;;
179;SDS011;78;48.788;9.010;2022-07-17T12:16:44;13.57;;;2.40;;
179;SDS011;78;48.788;9.010;2022-07-17T12:19:14;16.07;;;2.30;;
179;SDS011;78;48.788;9.010;2022-07-17T12:22:00;14.30;;;2.30;;
179;SDS011;78;48.788;9.010;2022-07-17T12:24:28;15.40;;;2.20;;
179;SDS011;78;48.788;9.010;2022-07-17T12:26:54;14.70;;;2.30;;
179;SDS011;78;48.788;9.010;2022-07-17T12:29:21;13.70;;;2.23;;
179;SDS011;78;48.788;9.010;2022-07-17T12:31:47;13.93;;;2.40;;
179;SDS011;78;48.788;9.010;2022-07-17T12:34:14;12.90;;;2.00;;
179;SDS011;78;48.788;9.010;2022-07-17T12:36:40;13.00;;;2.20;;
179;SDS011;78;48.788;9.010;2022-07-17T12:39:06;13.27;;;2.30;;
179;SDS011;78;48.788;9.010;2022-07-17T12:41:32;12.80;;;2.17;;
179;SDS011;78;48.788;9.010;2022-07-17T12:43:58;12.97;;;2.10;;
179;SDS011;78;48.788;9.010;2022-07-17T12:46:24;13.27;;;2.20;;
179;SDS011;78;48.788;9.010;2022-07-17T12:48:50;12.73;;;2.30;;
179;SDS011;78;48.788;9.010;2022-07-17T12:51:16;12.80;;;2.33;;
179;SDS011;78;48.788;9.010;2022-07-17T12:53:42;13.05;;;2.20;;
179;SDS011;78;48.788;9.010;2022-07-17T12:56:09;12.98;;;2.20;;
179;SDS011;78;48.788;9.010;2022-07-17T12:58:35;12.68;;;2.22;;
179;SDS011;78;48.788;9.010;2022-07-17T13:01:02;12.45;;;2.05;;
179;SDS011;78;48.788;9.010;2022-07-17T13:03:29;12.60;;;2.20;;
179;SDS011;78;48.788;9.010;2022-07-17T13:05:55;14.02;;;2.25;;
179;SDS011;78;48.788;9.010;2022-07-17T13:08:21;14.00;;;2.40;;
179;SDS011;78;48.788;9.010;2022-07-17T13:10:47;13.13;;;2.10;;
179;SDS011;78;48.788;9.010;2022-07-17T13:13:13;13.00;;;2.00;;
179;SDS011;78;48.788;9.010;2022-07-17T13:15:40;13.00;;;2.20;;
179;SDS011;78;48.788;9.010;2022-07-17T13:18:06;12.95;;;2.05;;
179;SDS011;78;48.788;9.010;2022-07-17T13:20:33;13.70;;;2.20;;
179;SDS011;78;48.788;9.010;2022-07-17T13:23:01;13.25;;;2.20;;
179;SDS011;78;48.788;9.010;2022-07-17T13:25:27;13.07;;;2.20;;
179;SDS011;78;48.788;9.010;2022-07-17T13:27:53;12.27;;;2.20;;
179;SDS011;78;48.788;9.010;2022-07-17T13:30:19;12.15;;;2.10;;
179;SDS011;78;48.788;9.010;2022-07-17T13:32:45;12.63;;;2.00;;
179;SDS011;78;48.788;9.010;2022-07-17T13:35:11;12.52;;;2.00;;
179;SDS011;78;48.788;9.010;2022-07-17T13:37:37;12.13;;;1.90;;
179;SDS011;78;48.788;9.010;2022-07-17T13:40:04;12.27;;;1.90;;
179;SDS011;78;48.788;9.010;2022-07-17T13:42:30;12.93;;;1.85;;
179;SDS011;78;48.788;9.010;2022-07-17T13:44:56;13.40;;;1.90;;
179;SDS011;78;48.788;9.010;2022-07-17T13:47:22;12.75;;;2.05;;
179;SDS011;78;48.788;9.010;2022-07-17T13:49:48;12.95;;;2.08;;
179;SDS011;78;48.788;9.010;2022-07-17T13:52:14;13.05;;;2.17;;
179;SDS011;78;48.788;9.010;2022-07-17T13:54:40;12.20;;;2.08;;
179;SDS011;78;48.788;9.010;2022-07-17T13:57:06;12.05;;;2.00;;
179;SDS011;78;48.788;9.010;2022-07-17T13:59:32;12.65;;;2.30;;
179;SDS011;78;48.788;9.010;2022-07-17T14:01:58;12.68;;;2.10;;
179;SDS011;78;48.788;9.010;2022-07-17T14:04:24;13.43;;;1.98;;
179;SDS011;78;48.788;9.010;2022-07-17T14:06:51;17.33;;;2.17;;
179;SDS011;78;48.788;9.010;2022-07-17T14:09:17;12.35;;;2.10;;
179;SDS011;78;48.788;9.010;2022-07-17T14:11:43;13.73;;;2.20;;
179;SDS011;78;48.788;9.010;2022-07-17T14:14:09;12.60;;;2.20;;
179;SDS011;78;48.788;9.010;2022-07-17T14:16:36;17.55;;;2.20;;
179;SDS011;78;48.788;9.010;2022-07-17T14:19:02;12.55;;;2.00;;
179;SDS011;78;48.788;9.010;2022-07-17T14:21:30;15.23;;;2.08;;
179;SDS011;78;48.788;9.010;2022-07-17T14:23:57;14.10;;;2.00;;
179;SDS011;78;48.788;9.010;2022-07-17T14:26:23;16.05;;;2.10;;
179;SDS011;78;48.788;9.010;2022-07-17T14:28:50;12.02;;;1.90;;
179;SDS011;78;48.788;9.010;2022-07-17T14:31:16;13.95;;;2.00;;
179;SDS011;78;48.788;9.010;2022-07-17T14:33:43;12.50;;;1.85;;
179;SDS011;78;48.788;9.010;2022-07-17T14:36:10;12.85;;;1.90;;
179;SDS011;78;48.788;9.010;2022-07-17T14:38:36;12.10;;;2.10;;
179;SDS011;78;48.788;9.010;2022-07-17T14:41:03;12.65;;;2.15;;
179;SDS011;78;48.788;9.010;2022-07-17T14:43:29;12.15;;;2.08;;
179;SDS011;78;48.788;9.010;2022-07-17T14:45:56;13.18;;;2.00;;
179;SDS011;78;48.788;9.010;2022-07-17T14:48:22;16.13;;;2.28;;
179;SDS011;78;48.788;9.010;2022-07-17T14:50:49;16.33;;;2.20;;
179;SDS011;78;48.788;9.010;2022-07-17T14:53:15;15.52;;;2.30;;
179;SDS011;78;48.788;9.010;2022-07-17T14:55:41;11.90;;;1.90;;
179;SDS011;78;48.788;9.010;2022-07-17T14:58:07;12.02;;;2.00;;
179;SDS011;78;48.788;9.010;2022-07-17T15:00:33;13.80;;;2.47;;
179;SDS011;78;48.788;9.010;2022-07-17T15:03:00;13.15;;;2.20;;
179;SDS011;78;48.788;9.010;2022-07-17T15:05:26;11.98;;;2.00;;
179;SDS011;78;48.788;9.010;2022-07-17T15:07:53;13.25;;;2.10;;
179;SDS011;78;48.788;9.010;2022-07-17T15:10:19;12.23;;;2.10;;
179;SDS011;78;48.788;9.010;2022-07-17T15:12:45;14.13;;;2.20;;
179;SDS011;78;48.788;9.010;2022-07-17T15:15:12;13.38;;;2.13;;
179;SDS011;78;48.788;9.010;2022-07-17T15:17:38;13.15;;;2.20;;
179;SDS011;78;48.788;9.010;2022-07-17T15:20:05;13.57;;;2.10;;
179;SDS011;78;48.788;9.010;2022-07-17T15:22:31;11.77;;;2.10;;
179;SDS011;78;48.788;9.010;2022-07-17T15:24:58;13.35;;;2.10;;
179;SDS011;78;48.788;9.010;2022-07-17T15:27:25;12.50;;;2.00;;
179;SDS011;78;48.788;9.010;2022-07-17T15:29:51;16.92;;;2.13;;
179;SDS011;78;48.788;9.010;2022-07-17T15:32:18;12.50;;;2.22;;
179;SDS011;78;48.788;9.010;2022-07-17T15:34:44;14.13;;;1.85;;
179;SDS011;78;48.788;9.010;2022-07-17T15:37:11;13.80;;;2.10;;
179;SDS011;78;48.788;9.010;2022-07-17T15:39:37;13.80;;;2.00;;
179;SDS011;78;48.788;9.010;2022-07-17T15:42:03;12.05;;;2.00;;
179;SDS011;78;48.788;9.010;2022-07-17T15:44:29;14.45;;;2.20;;
179;SDS011;78;48.788;9.010;2022-07-17T15:46:55;12.85;;;2.00;;
179;SDS011;78;48.788;9.010;2022-07-17T15:49:21;11.73;;;1.95;;
179;SDS011;78;48.788;9.010;2022-07-17T15:51:49;14.18;;;1.92;;
179;SDS011;78;48.788;9.010;2022-07-17T15:54:15;15.80;;;2.10;;
179;SDS011;78;48.788;9.010;2022-07-17T15:56:42;13.20;;;1.90;;